sensor_id;sensor_type;location;lat;lon;timestamp;temperature;humidity
12303;DHT22;6214;48.012;7.862;2022-12-10T00:01:31;3.30;99.90
12303;DHT22;6214;48.012;7.862;2022-12-10T00:03:59;3.40;99.90
12303;DHT22;6214;48.012;7.862;2022-12-10T00:06:28;3.30;99.90
12303;DHT22;6214;48.012;7.862;2022-12-10T00:08:56;3.20;99.90
12303;DHT22;6214;48.012;7.862;2022-12-10T00:11:23;3.20;99.90
12303;DHT22;6214;48.012;7.862;2022-12-10T00:13:51;3.40;99.90
12303;DHT22;6214;48.012;7.862;2022-12-10T00:16:22;3.40;99.90
12303;DHT22;6214;48.012;7.862;2022-12-10T00:18:50;3.50;99.90
12303;DHT22;6214;48.012;7.862;2022-12-10T00:21:22;3.50;99.90
12303;DHT22;6214;48.012;7.862;2022-12-10T00:23:50;3.50;99.90
12303;DHT22;6214;48.012;7.862;2022-12-10T00:26:22;3.50;99.90
12303;DHT22;6214;48.012;7.862;2022-12-10T00:28:50;3.60;99.90
12303;DHT22;6214;48.012;7.862;2022-12-10T00:31:22;3.60;99.90
12303;DHT22;6214;48.012;7.862;2022-12-10T00:33:50;3.70;99.90
12303;DHT22;6214;48.012;7.862;2022-12-10T00:36:21;3.70;99.90
12303;DHT22;6214;48.012;7.862;2022-12-10T00:38:49;3.60;99.90
12303;DHT22;6214;48.012;7.862;2022-12-10T00:41:16;3.60;99.90
12303;DHT22;6214;48.012;7.862;2022-12-10T00:43:43;3.70;99.90
12303;DHT22;6214;48.012;7.862;2022-12-10T00:46:12;5.00;99.90
12303;DHT22;6214;48.012;7.862;2022-12-10T00:48:40;3.50;99.90
12303;DHT22;6214;48.012;7.862;2022-12-10T00:53:37;3.20;99.90
12303;DHT22;6214;48.012;7.862;2022-12-10T00:56:05;3.20;99.90
12303;DHT22;6214;48.012;7.862;2022-12-10T00:58:34;3.40;99.90
12303;DHT22;6214;48.012;7.862;2022-12-10T01:01:17;3.50;99.90
12303;DHT22;6214;48.012;7.862;2022-12-10T01:03:46;3.60;99.90
12303;DHT22;6214;48.012;7.862;2022-12-10T01:09:25;3.60;99.90
12303;DHT22;6214;48.012;7.862;2022-12-10T01:11:53;3.70;99.90
12303;DHT22;6214;48.012;7.862;2022-12-10T01:14:30;3.60;99.90
12303;DHT22;6214;48.012;7.862;2022-12-10T01:17:00;3.70;99.90
12303;DHT22;6214;48.012;7.862;2022-12-10T01:19:30;3.60;99.90
12303;DHT22;6214;48.012;7.862;2022-12-10T01:21:57;3.70;99.90
12303;DHT22;6214;48.012;7.862;2022-12-10T01:24:25;3.60;99.90
12303;DHT22;6214;48.012;7.862;2022-12-10T01:26:52;3.50;99.90
12303;DHT22;6214;48.012;7.862;2022-12-10T01:29:19;3.50;99.90
12303;DHT22;6214;48.012;7.862;2022-12-10T01:31:50;3.50;99.90
12303;DHT22;6214;48.012;7.862;2022-12-10T01:34:18;3.50;99.90
12303;DHT22;6214;48.012;7.862;2022-12-10T01:36:48;3.50;99.90
12303;DHT22;6214;48.012;7.862;2022-12-10T01:39:16;3.50;99.90
12303;DHT22;6214;48.012;7.862;2022-12-10T01:42:01;3.40;99.90
12303;DHT22;6214;48.012;7.862;2022-12-10T01:46:57;3.40;99.90
12303;DHT22;6214;48.012;7.862;2022-12-10T01:49:27;3.50;99.90
12303;DHT22;6214;48.012;7.862;2022-12-10T01:51:58;3.60;99.90
12303;DHT22;6214;48.012;7.862;2022-12-10T01:54:27;3.70;99.90
12303;DHT22;6214;48.012;7.862;2022-12-10T01:57:02;3.60;99.90
12303;DHT22;6214;48.012;7.862;2022-12-10T01:59:30;3.60;99.90
12303;DHT22;6214;48.012;7.862;2022-12-10T02:02:10;3.40;99.90
12303;DHT22;6214;48.012;7.862;2022-12-10T02:14:04;3.40;99.90
12303;DHT22;6214;48.012;7.862;2022-12-10T02:16:38;3.50;99.90
12303;DHT22;6214;48.012;7.862;2022-12-10T02:19:21;3.30;99.90
12303;DHT22;6214;48.012;7.862;2022-12-10T02:21:50;3.20;99.90
12303;DHT22;6214;48.012;7.862;2022-12-10T02:24:23;3.30;99.90
12303;DHT22;6214;48.012;7.862;2022-12-10T02:29:43;3.10;99.90
12303;DHT22;6214;48.012;7.862;2022-12-10T02:32:14;3.00;99.90
12303;DHT22;6214;48.012;7.862;2022-12-10T02:34:47;3.00;99.90
12303;DHT22;6214;48.012;7.862;2022-12-10T02:37:19;3.00;99.90
12303;DHT22;6214;48.012;7.862;2022-12-10T02:39:50;3.10;99.90
12303;DHT22;6214;48.012;7.862;2022-12-10T02:42:21;3.10;99.90
12303;DHT22;6214;48.012;7.862;2022-12-10T02:44:52;3.00;99.90
12303;DHT22;6214;48.012;7.862;2022-12-10T02:47:20;3.20;99.90
12303;DHT22;6214;48.012;7.862;2022-12-10T02:49:50;3.30;99.90
12303;DHT22;6214;48.012;7.862;2022-12-10T02:52:20;3.20;99.90
12303;DHT22;6214;48.012;7.862;2022-12-10T02:54:49;3.30;99.90
12303;DHT22;6214;48.012;7.862;2022-12-10T03:02:51;3.40;99.90
12303;DHT22;6214;48.012;7.862;2022-12-10T03:05:27;3.30;99.90
12303;DHT22;6214;48.012;7.862;2022-12-10T03:08:16;3.20;99.90
12303;DHT22;6214;48.012;7.862;2022-12-10T03:10:58;3.10;99.90
12303;DHT22;6214;48.012;7.862;2022-12-10T03:13:31;3.30;99.90
12303;DHT22;6214;48.012;7.862;2022-12-10T03:15:59;3.20;99.90
12303;DHT22;6214;48.012;7.862;2022-12-10T03:18:29;3.40;99.90
12303;DHT22;6214;48.012;7.862;2022-12-10T03:21:01;3.50;99.90
12303;DHT22;6214;48.012;7.862;2022-12-10T03:23:29;3.40;99.90
12303;DHT22;6214;48.012;7.862;2022-12-10T03:25:59;3.40;99.90
12303;DHT22;6214;48.012;7.862;2022-12-10T03:28:26;3.50;99.90
12303;DHT22;6214;48.012;7.862;2022-12-10T03:30:54;3.40;99.90
12303;DHT22;6214;48.012;7.862;2022-12-10T03:33:22;3.50;99.90
12303;DHT22;6214;48.012;7.862;2022-12-10T03:35:49;3.40;99.90
12303;DHT22;6214;48.012;7.862;2022-12-10T03:38:17;3.50;99.90
12303;DHT22;6214;48.012;7.862;2022-12-10T03:40:44;3.60;99.90
12303;DHT22;6214;48.012;7.862;2022-12-10T03:43:14;3.40;99.90
12303;DHT22;6214;48.012;7.862;2022-12-10T03:45:41;3.20;99.90
12303;DHT22;6214;48.012;7.862;2022-12-10T03:48:08;3.20;99.90
12303;DHT22;6214;48.012;7.862;2022-12-10T03:50:35;3.30;99.90
12303;DHT22;6214;48.012;7.862;2022-12-10T03:53:01;3.30;99.90
12303;DHT22;6214;48.012;7.862;2022-12-10T03:55:28;3.30;99.90
12303;DHT22;6214;48.012;7.862;2022-12-10T03:57:55;3.10;99.90
12303;DHT22;6214;48.012;7.862;2022-12-10T04:00:22;3.00;99.90
12303;DHT22;6214;48.012;7.862;2022-12-10T04:02:49;3.10;99.90
12303;DHT22;6214;48.012;7.862;2022-12-10T04:05:16;3.10;99.90
12303;DHT22;6214;48.012;7.862;2022-12-10T04:07:43;3.00;99.90
12303;DHT22;6214;48.012;7.862;2022-12-10T04:10:10;3.10;99.90
12303;DHT22;6214;48.012;7.862;2022-12-10T04:12:37;3.10;99.90
12303;DHT22;6214;48.012;7.862;2022-12-10T04:15:04;3.00;99.90
12303;DHT22;6214;48.012;7.862;2022-12-10T04:17:50;3.10;99.90
12303;DHT22;6214;48.012;7.862;2022-12-10T04:20:16;3.10;99.90
12303;DHT22;6214;48.012;7.862;2022-12-10T04:23:02;3.10;99.90
12303;DHT22;6214;48.012;7.862;2022-12-10T04:25:48;3.10;99.90
12303;DHT22;6214;48.012;7.862;2022-12-10T04:28:33;3.20;99.90
12303;DHT22;6214;48.012;7.862;2022-12-10T04:31:00;3.40;99.90
12303;DHT22;6214;48.012;7.862;2022-12-10T04:33:27;3.40;99.90
12303;DHT22;6214;48.012;7.862;2022-12-10T04:35:53;3.40;99.90
12303;DHT22;6214;48.012;7.862;2022-12-10T04:38:20;3.40;99.90
12303;DHT22;6214;48.012;7.862;2022-12-10T04:40:47;3.50;99.90
12303;DHT22;6214;48.012;7.862;2022-12-10T04:43:14;3.60;99.90
12303;DHT22;6214;48.012;7.862;2022-12-10T04:45:40;3.60;99.90
12303;DHT22;6214;48.012;7.862;2022-12-10T04:48:07;3.60;99.90
12303;DHT22;6214;48.012;7.862;2022-12-10T04:50:34;6.00;99.90
12303;DHT22;6214;48.012;7.862;2022-12-10T04:53:01;3.70;99.90
12303;DHT22;6214;48.012;7.862;2022-12-10T04:55:28;3.70;99.90
12303;DHT22;6214;48.012;7.862;2022-12-10T04:57:54;3.60;99.90
12303;DHT22;6214;48.012;7.862;2022-12-10T05:00:21;3.60;99.90
12303;DHT22;6214;48.012;7.862;2022-12-10T05:02:49;3.60;99.90
12303;DHT22;6214;48.012;7.862;2022-12-10T05:05:16;3.50;99.90
12303;DHT22;6214;48.012;7.862;2022-12-10T05:07:43;3.40;99.90
12303;DHT22;6214;48.012;7.862;2022-12-10T05:10:10;3.30;99.90
12303;DHT22;6214;48.012;7.862;2022-12-10T05:12:37;3.40;99.90
12303;DHT22;6214;48.012;7.862;2022-12-10T05:15:04;3.50;99.90
12303;DHT22;6214;48.012;7.862;2022-12-10T05:17:32;3.60;99.90
12303;DHT22;6214;48.012;7.862;2022-12-10T05:19:59;3.60;99.90
12303;DHT22;6214;48.012;7.862;2022-12-10T05:22:26;3.50;99.90
12303;DHT22;6214;48.012;7.862;2022-12-10T05:25:11;3.40;99.90
12303;DHT22;6214;48.012;7.862;2022-12-10T05:27:40;3.30;99.90
12303;DHT22;6214;48.012;7.862;2022-12-10T05:30:08;3.50;99.90
12303;DHT22;6214;48.012;7.862;2022-12-10T05:32:36;3.50;99.90
12303;DHT22;6214;48.012;7.862;2022-12-10T05:35:04;3.50;99.90
12303;DHT22;6214;48.012;7.862;2022-12-10T05:37:31;3.50;99.90
12303;DHT22;6214;48.012;7.862;2022-12-10T05:39:57;3.70;99.90
12303;DHT22;6214;48.012;7.862;2022-12-10T05:42:24;3.60;99.90
12303;DHT22;6214;48.012;7.862;2022-12-10T05:44:51;3.60;99.90
12303;DHT22;6214;48.012;7.862;2022-12-10T05:47:18;3.50;99.90
12303;DHT22;6214;48.012;7.862;2022-12-10T05:49:45;3.30;99.90
12303;DHT22;6214;48.012;7.862;2022-12-10T05:52:18;3.20;99.90
12303;DHT22;6214;48.012;7.862;2022-12-10T05:54:45;3.30;99.90
12303;DHT22;6214;48.012;7.862;2022-12-10T05:57:12;3.50;99.90
12303;DHT22;6214;48.012;7.862;2022-12-10T05:59:39;3.50;99.90
12303;DHT22;6214;48.012;7.862;2022-12-10T06:02:05;3.50;99.90
12303;DHT22;6214;48.012;7.862;2022-12-10T06:04:32;3.40;99.90
12303;DHT22;6214;48.012;7.862;2022-12-10T06:06:59;3.40;99.90
12303;DHT22;6214;48.012;7.862;2022-12-10T06:09:26;3.50;99.90
12303;DHT22;6214;48.012;7.862;2022-12-10T06:11:53;3.50;99.90
12303;DHT22;6214;48.012;7.862;2022-12-10T06:14:20;3.50;99.90
12303;DHT22;6214;48.012;7.862;2022-12-10T06:16:47;3.50;99.90
12303;DHT22;6214;48.012;7.862;2022-12-10T06:19:13;3.50;99.90
12303;DHT22;6214;48.012;7.862;2022-12-10T06:21:40;3.50;99.90
12303;DHT22;6214;48.012;7.862;2022-12-10T06:24:07;3.40;99.90
12303;DHT22;6214;48.012;7.862;2022-12-10T06:26:34;3.50;99.90
12303;DHT22;6214;48.012;7.862;2022-12-10T06:29:01;3.50;99.90
12303;DHT22;6214;48.012;7.862;2022-12-10T06:31:28;3.40;99.90
12303;DHT22;6214;48.012;7.862;2022-12-10T06:33:55;3.40;99.90
12303;DHT22;6214;48.012;7.862;2022-12-10T06:36:22;3.40;99.90
12303;DHT22;6214;48.012;7.862;2022-12-10T06:38:49;3.30;99.90
12303;DHT22;6214;48.012;7.862;2022-12-10T06:41:17;3.10;99.90
12303;DHT22;6214;48.012;7.862;2022-12-10T06:43:44;3.00;99.90
12303;DHT22;6214;48.012;7.862;2022-12-10T06:46:13;3.10;99.90
12303;DHT22;6214;48.012;7.862;2022-12-10T06:48:41;3.20;99.90
12303;DHT22;6214;48.012;7.862;2022-12-10T06:51:10;3.30;99.90
12303;DHT22;6214;48.012;7.862;2022-12-10T06:53:38;3.30;99.90
12303;DHT22;6214;48.012;7.862;2022-12-10T06:56:07;3.20;99.90
12303;DHT22;6214;48.012;7.862;2022-12-10T06:58:37;3.10;99.90
12303;DHT22;6214;48.012;7.862;2022-12-10T07:01:16;3.20;99.90
12303;DHT22;6214;48.012;7.862;2022-12-10T07:03:43;3.30;99.90
12303;DHT22;6214;48.012;7.862;2022-12-10T07:06:11;3.30;99.90
12303;DHT22;6214;48.012;7.862;2022-12-10T07:08:38;3.20;99.90
12303;DHT22;6214;48.012;7.862;2022-12-10T07:11:08;3.30;99.90
12303;DHT22;6214;48.012;7.862;2022-12-10T07:13:35;3.10;99.90
12303;DHT22;6214;48.012;7.862;2022-12-10T07:16:03;3.10;99.90
12303;DHT22;6214;48.012;7.862;2022-12-10T07:18:37;3.20;99.90
12303;DHT22;6214;48.012;7.862;2022-12-10T07:21:14;3.10;99.90
12303;DHT22;6214;48.012;7.862;2022-12-10T07:23:42;3.20;99.90
12303;DHT22;6214;48.012;7.862;2022-12-10T07:26:09;3.20;99.90
12303;DHT22;6214;48.012;7.862;2022-12-10T07:28:36;3.20;99.90
12303;DHT22;6214;48.012;7.862;2022-12-10T07:31:17;3.20;99.90
12303;DHT22;6214;48.012;7.862;2022-12-10T07:33:44;3.10;99.90
12303;DHT22;6214;48.012;7.862;2022-12-10T07:36:11;3.00;99.90
12303;DHT22;6214;48.012;7.862;2022-12-10T07:38:38;3.20;99.90
12303;DHT22;6214;48.012;7.862;2022-12-10T07:41:10;3.30;99.90
12303;DHT22;6214;48.012;7.862;2022-12-10T07:43:39;3.20;99.90
12303;DHT22;6214;48.012;7.862;2022-12-10T07:48:36;3.20;99.90
12303;DHT22;6214;48.012;7.862;2022-12-10T07:51:04;3.10;99.90
12303;DHT22;6214;48.012;7.862;2022-12-10T07:53:31;3.10;99.90
12303;DHT22;6214;48.012;7.862;2022-12-10T07:55:58;3.00;99.90
12303;DHT22;6214;48.012;7.862;2022-12-10T07:58:25;2.90;99.90
12303;DHT22;6214;48.012;7.862;2022-12-10T08:00:52;3.00;99.90
12303;DHT22;6214;48.012;7.862;2022-12-10T08:03:18;3.10;99.90
12303;DHT22;6214;48.012;7.862;2022-12-10T08:05:45;3.10;99.90
12303;DHT22;6214;48.012;7.862;2022-12-10T08:08:12;3.00;99.90
12303;DHT22;6214;48.012;7.862;2022-12-10T08:10:39;3.10;99.90
12303;DHT22;6214;48.012;7.862;2022-12-10T08:13:06;3.20;99.90
12303;DHT22;6214;48.012;7.862;2022-12-10T08:15:33;3.20;99.90
12303;DHT22;6214;48.012;7.862;2022-12-10T08:18:00;3.10;99.90
12303;DHT22;6214;48.012;7.862;2022-12-10T08:20:27;3.10;99.90
12303;DHT22;6214;48.012;7.862;2022-12-10T08:22:54;3.00;99.90
12303;DHT22;6214;48.012;7.862;2022-12-10T08:25:20;3.00;99.90
12303;DHT22;6214;48.012;7.862;2022-12-10T08:27:47;2.90;99.90
12303;DHT22;6214;48.012;7.862;2022-12-10T08:30:14;3.00;99.90
12303;DHT22;6214;48.012;7.862;2022-12-10T08:32:41;3.20;99.90
12303;DHT22;6214;48.012;7.862;2022-12-10T08:35:08;3.30;99.90
12303;DHT22;6214;48.012;7.862;2022-12-10T08:37:35;3.40;99.90
12303;DHT22;6214;48.012;7.862;2022-12-10T08:40:02;3.30;99.90
12303;DHT22;6214;48.012;7.862;2022-12-10T08:42:29;3.20;99.90
12303;DHT22;6214;48.012;7.862;2022-12-10T08:44:56;3.20;99.90
12303;DHT22;6214;48.012;7.862;2022-12-10T08:47:23;3.20;99.90
12303;DHT22;6214;48.012;7.862;2022-12-10T08:49:49;3.20;99.90
12303;DHT22;6214;48.012;7.862;2022-12-10T08:52:16;3.30;99.90
12303;DHT22;6214;48.012;7.862;2022-12-10T08:54:43;4.80;99.90
12303;DHT22;6214;48.012;7.862;2022-12-10T08:57:10;3.30;99.90
12303;DHT22;6214;48.012;7.862;2022-12-10T08:59:37;3.30;99.90
12303;DHT22;6214;48.012;7.862;2022-12-10T09:02:04;3.40;99.90
12303;DHT22;6214;48.012;7.862;2022-12-10T09:04:31;3.60;99.90
12303;DHT22;6214;48.012;7.862;2022-12-10T09:06:58;3.60;99.90
12303;DHT22;6214;48.012;7.862;2022-12-10T09:09:24;3.70;99.90
12303;DHT22;6214;48.012;7.862;2022-12-10T09:11:51;3.60;99.90
12303;DHT22;6214;48.012;7.862;2022-12-10T09:14:18;3.50;99.90
12303;DHT22;6214;48.012;7.862;2022-12-10T09:16:45;3.30;99.90
12303;DHT22;6214;48.012;7.862;2022-12-10T09:19:12;3.30;99.90
12303;DHT22;6214;48.012;7.862;2022-12-10T09:21:45;3.30;99.90
12303;DHT22;6214;48.012;7.862;2022-12-10T09:24:13;3.30;99.90
12303;DHT22;6214;48.012;7.862;2022-12-10T09:26:40;3.30;99.90
12303;DHT22;6214;48.012;7.862;2022-12-10T09:29:07;3.50;99.90
12303;DHT22;6214;48.012;7.862;2022-12-10T09:31:34;3.60;99.90
12303;DHT22;6214;48.012;7.862;2022-12-10T09:34:01;3.40;99.90
12303;DHT22;6214;48.012;7.862;2022-12-10T09:36:28;3.40;99.90
12303;DHT22;6214;48.012;7.862;2022-12-10T09:38:59;3.40;99.90
12303;DHT22;6214;48.012;7.862;2022-12-10T09:42:01;3.50;99.90
12303;DHT22;6214;48.012;7.862;2022-12-10T09:47:05;3.30;99.90
12303;DHT22;6214;48.012;7.862;2022-12-10T09:50:06;3.30;99.90
12303;DHT22;6214;48.012;7.862;2022-12-10T09:52:42;3.20;99.90
12303;DHT22;6214;48.012;7.862;2022-12-10T09:55:19;3.20;99.90
12303;DHT22;6214;48.012;7.862;2022-12-10T09:57:50;3.20;99.90
12303;DHT22;6214;48.012;7.862;2022-12-10T10:02:47;3.10;99.90
12303;DHT22;6214;48.012;7.862;2022-12-10T10:05:22;3.20;99.90
12303;DHT22;6214;48.012;7.862;2022-12-10T10:07:55;3.20;99.90
12303;DHT22;6214;48.012;7.862;2022-12-10T10:10:32;3.20;99.90
12303;DHT22;6214;48.012;7.862;2022-12-10T10:15:37;3.20;99.90
12303;DHT22;6214;48.012;7.862;2022-12-10T10:18:32;3.40;99.90
12303;DHT22;6214;48.012;7.862;2022-12-10T10:21:00;3.30;99.90
12303;DHT22;6214;48.012;7.862;2022-12-10T10:23:29;3.20;99.90
12303;DHT22;6214;48.012;7.862;2022-12-10T10:25:56;3.20;99.90
12303;DHT22;6214;48.012;7.862;2022-12-10T10:28:23;3.10;99.90
12303;DHT22;6214;48.012;7.862;2022-12-10T10:30:51;3.10;99.90
12303;DHT22;6214;48.012;7.862;2022-12-10T10:33:19;3.20;99.90
12303;DHT22;6214;48.012;7.862;2022-12-10T10:35:56;3.20;99.90
12303;DHT22;6214;48.012;7.862;2022-12-10T10:38:28;3.20;99.90
12303;DHT22;6214;48.012;7.862;2022-12-10T10:40:58;3.20;99.90
12303;DHT22;6214;48.012;7.862;2022-12-10T10:43:31;3.30;99.90
12303;DHT22;6214;48.012;7.862;2022-12-10T10:46:01;3.30;99.90
12303;DHT22;6214;48.012;7.862;2022-12-10T10:48:29;3.20;99.90
12303;DHT22;6214;48.012;7.862;2022-12-10T10:51:06;3.20;99.90
12303;DHT22;6214;48.012;7.862;2022-12-10T11:01:20;3.00;99.90
12303;DHT22;6214;48.012;7.862;2022-12-10T11:03:49;2.90;99.90
12303;DHT22;6214;48.012;7.862;2022-12-10T11:06:17;2.90;99.90
12303;DHT22;6214;48.012;7.862;2022-12-10T11:08:46;2.90;99.90
12303;DHT22;6214;48.012;7.862;2022-12-10T11:11:19;2.90;99.90
12303;DHT22;6214;48.012;7.862;2022-12-10T11:13:47;2.80;99.90
12303;DHT22;6214;48.012;7.862;2022-12-10T11:16:24;2.90;99.90
12303;DHT22;6214;48.012;7.862;2022-12-10T11:18:59;3.00;99.90
12303;DHT22;6214;48.012;7.862;2022-12-10T11:21:30;3.00;99.90
12303;DHT22;6214;48.012;7.862;2022-12-10T11:23:58;2.90;99.90
12303;DHT22;6214;48.012;7.862;2022-12-10T11:26:40;2.90;99.90
12303;DHT22;6214;48.012;7.862;2022-12-10T11:45:47;3.10;99.90
12303;DHT22;6214;48.012;7.862;2022-12-10T11:48:34;3.10;99.90
12303;DHT22;6214;48.012;7.862;2022-12-10T11:56:56;3.20;99.90
12303;DHT22;6214;48.012;7.862;2022-12-10T11:59:36;3.40;99.90
12303;DHT22;6214;48.012;7.862;2022-12-10T12:05:58;3.50;99.90
12303;DHT22;6214;48.012;7.862;2022-12-10T12:19:40;3.40;99.90
12303;DHT22;6214;48.012;7.862;2022-12-10T12:22:34;3.30;99.90
12303;DHT22;6214;48.012;7.862;2022-12-10T12:25:30;3.30;99.90
12303;DHT22;6214;48.012;7.862;2022-12-10T12:28:12;3.20;99.90
12303;DHT22;6214;48.012;7.862;2022-12-10T12:30:44;3.20;99.90
12303;DHT22;6214;48.012;7.862;2022-12-10T12:33:20;3.30;99.90
12303;DHT22;6214;48.012;7.862;2022-12-10T12:35:59;3.50;99.90
12303;DHT22;6214;48.012;7.862;2022-12-10T12:38:41;3.50;99.90
12303;DHT22;6214;48.012;7.862;2022-12-10T12:41:29;3.70;99.90
12303;DHT22;6214;48.012;7.862;2022-12-10T12:44:12;3.80;99.90
12303;DHT22;6214;48.012;7.862;2022-12-10T12:46:44;3.80;99.90
12303;DHT22;6214;48.012;7.862;2022-12-10T12:49:35;3.70;99.90
12303;DHT22;6214;48.012;7.862;2022-12-10T12:52:27;3.60;99.90
12303;DHT22;6214;48.012;7.862;2022-12-10T12:54:58;3.30;99.90
12303;DHT22;6214;48.012;7.862;2022-12-10T12:57:33;3.20;99.90
12303;DHT22;6214;48.012;7.862;2022-12-10T13:00:09;3.40;99.90
12303;DHT22;6214;48.012;7.862;2022-12-10T13:05:23;3.40;99.90
12303;DHT22;6214;48.012;7.862;2022-12-10T13:08:24;3.40;99.90
12303;DHT22;6214;48.012;7.862;2022-12-10T13:11:15;3.30;99.90
12303;DHT22;6214;48.012;7.862;2022-12-10T13:14:02;3.30;99.90
12303;DHT22;6214;48.012;7.862;2022-12-10T13:27:14;3.30;99.90
12303;DHT22;6214;48.012;7.862;2022-12-10T13:37:54;3.10;99.90
12303;DHT22;6214;48.012;7.862;2022-12-10T13:43:37;3.10;99.90
12303;DHT22;6214;48.012;7.862;2022-12-10T13:48:55;3.00;99.90
12303;DHT22;6214;48.012;7.862;2022-12-10T13:51:34;2.90;99.90
12303;DHT22;6214;48.012;7.862;2022-12-10T14:08:14;3.00;99.90
12303;DHT22;6214;48.012;7.862;2022-12-10T14:10:43;3.20;99.90
12303;DHT22;6214;48.012;7.862;2022-12-10T14:13:13;3.30;99.90
12303;DHT22;6214;48.012;7.862;2022-12-10T14:15:53;3.30;99.90
12303;DHT22;6214;48.012;7.862;2022-12-10T14:18:22;3.20;99.90
12303;DHT22;6214;48.012;7.862;2022-12-10T14:20:52;3.20;99.90
12303;DHT22;6214;48.012;7.862;2022-12-10T14:23:24;3.30;99.90
12303;DHT22;6214;48.012;7.862;2022-12-10T14:26:11;3.30;99.90
12303;DHT22;6214;48.012;7.862;2022-12-10T14:28:40;3.30;99.90
12303;DHT22;6214;48.012;7.862;2022-12-10T14:31:21;3.30;99.90
12303;DHT22;6214;48.012;7.862;2022-12-10T14:33:52;3.30;99.90
12303;DHT22;6214;48.012;7.862;2022-12-10T14:36:28;3.30;99.90
12303;DHT22;6214;48.012;7.862;2022-12-10T14:38:56;3.20;99.90
12303;DHT22;6214;48.012;7.862;2022-12-10T14:41:24;3.10;99.90
12303;DHT22;6214;48.012;7.862;2022-12-10T14:43:53;3.20;99.90
12303;DHT22;6214;48.012;7.862;2022-12-10T14:46:25;3.00;99.90
12303;DHT22;6214;48.012;7.862;2022-12-10T14:48:54;3.00;99.90
12303;DHT22;6214;48.012;7.862;2022-12-10T14:51:26;2.90;99.90
12303;DHT22;6214;48.012;7.862;2022-12-10T14:53:58;2.70;99.90
12303;DHT22;6214;48.012;7.862;2022-12-10T14:56:28;2.70;99.90
12303;DHT22;6214;48.012;7.862;2022-12-10T14:59:02;2.80;99.90
12303;DHT22;6214;48.012;7.862;2022-12-10T15:01:38;3.00;99.90
12303;DHT22;6214;48.012;7.862;2022-12-10T15:04:11;3.00;99.90
12303;DHT22;6214;48.012;7.862;2022-12-10T15:06:39;2.90;99.90
12303;DHT22;6214;48.012;7.862;2022-12-10T15:09:16;2.80;99.90
12303;DHT22;6214;48.012;7.862;2022-12-10T15:11:45;2.70;99.90
12303;DHT22;6214;48.012;7.862;2022-12-10T15:14:19;2.70;99.90
12303;DHT22;6214;48.012;7.862;2022-12-10T15:16:47;2.70;99.90
12303;DHT22;6214;48.012;7.862;2022-12-10T15:19:24;2.60;99.90
12303;DHT22;6214;48.012;7.862;2022-12-10T15:21:58;2.60;99.90
12303;DHT22;6214;48.012;7.862;2022-12-10T15:24:35;2.60;99.90
12303;DHT22;6214;48.012;7.862;2022-12-10T15:27:18;2.80;99.90
12303;DHT22;6214;48.012;7.862;2022-12-10T15:29:45;2.70;99.90
12303;DHT22;6214;48.012;7.862;2022-12-10T15:32:19;2.70;99.90
12303;DHT22;6214;48.012;7.862;2022-12-10T15:34:58;2.50;99.90
12303;DHT22;6214;48.012;7.862;2022-12-10T15:37:39;2.40;99.90
12303;DHT22;6214;48.012;7.862;2022-12-10T15:40:22;2.40;99.90
12303;DHT22;6214;48.012;7.862;2022-12-10T15:42:50;2.30;99.90
12303;DHT22;6214;48.012;7.862;2022-12-10T15:45:22;2.30;99.90
12303;DHT22;6214;48.012;7.862;2022-12-10T15:47:50;2.30;99.90
12303;DHT22;6214;48.012;7.862;2022-12-10T15:50:17;2.40;99.90
12303;DHT22;6214;48.012;7.862;2022-12-10T15:52:44;2.50;99.90
12303;DHT22;6214;48.012;7.862;2022-12-10T15:55:13;2.50;99.90
12303;DHT22;6214;48.012;7.862;2022-12-10T15:57:40;2.50;99.90
12303;DHT22;6214;48.012;7.862;2022-12-10T16:00:24;2.50;99.90
12303;DHT22;6214;48.012;7.862;2022-12-10T16:03:01;2.60;99.90
12303;DHT22;6214;48.012;7.862;2022-12-10T16:05:36;2.50;99.90
12303;DHT22;6214;48.012;7.862;2022-12-10T16:08:19;2.50;99.90
12303;DHT22;6214;48.012;7.862;2022-12-10T16:10:51;2.50;99.90
12303;DHT22;6214;48.012;7.862;2022-12-10T16:13:25;2.50;99.90
12303;DHT22;6214;48.012;7.862;2022-12-10T16:16:11;2.60;99.90
12303;DHT22;6214;48.012;7.862;2022-12-10T16:18:40;2.60;99.90
12303;DHT22;6214;48.012;7.862;2022-12-10T16:21:08;2.60;99.90
12303;DHT22;6214;48.012;7.862;2022-12-10T16:23:35;2.40;99.90
12303;DHT22;6214;48.012;7.862;2022-12-10T16:28:41;2.40;99.90
12303;DHT22;6214;48.012;7.862;2022-12-10T16:31:11;2.50;99.90
12303;DHT22;6214;48.012;7.862;2022-12-10T16:33:40;2.50;99.90
12303;DHT22;6214;48.012;7.862;2022-12-10T16:36:10;2.50;99.90
12303;DHT22;6214;48.012;7.862;2022-12-10T16:38:38;2.40;99.90
12303;DHT22;6214;48.012;7.862;2022-12-10T16:41:18;2.40;99.90
12303;DHT22;6214;48.012;7.862;2022-12-10T16:43:45;2.50;99.90
12303;DHT22;6214;48.012;7.862;2022-12-10T16:46:12;2.60;99.90
12303;DHT22;6214;48.012;7.862;2022-12-10T16:48:40;2.60;99.90
12303;DHT22;6214;48.012;7.862;2022-12-10T16:51:26;2.80;99.90
12303;DHT22;6214;48.012;7.862;2022-12-10T16:53:57;2.90;99.90
12303;DHT22;6214;48.012;7.862;2022-12-10T16:56:24;3.00;99.90
12303;DHT22;6214;48.012;7.862;2022-12-10T16:58:51;3.00;99.90
12303;DHT22;6214;48.012;7.862;2022-12-10T17:01:24;2.90;99.90
12303;DHT22;6214;48.012;7.862;2022-12-10T17:03:51;2.80;99.90
12303;DHT22;6214;48.012;7.862;2022-12-10T17:06:19;3.00;99.90
12303;DHT22;6214;48.012;7.862;2022-12-10T17:08:46;3.10;99.90
12303;DHT22;6214;48.012;7.862;2022-12-10T17:11:28;3.20;99.90
12303;DHT22;6214;48.012;7.862;2022-12-10T17:14:21;3.30;99.90
12303;DHT22;6214;48.012;7.862;2022-12-10T17:16:50;3.30;99.90
12303;DHT22;6214;48.012;7.862;2022-12-10T17:19:17;3.30;99.90
12303;DHT22;6214;48.012;7.862;2022-12-10T17:21:44;3.40;99.90
12303;DHT22;6214;48.012;7.862;2022-12-10T17:24:12;3.40;99.90
12303;DHT22;6214;48.012;7.862;2022-12-10T17:26:42;3.30;99.90
12303;DHT22;6214;48.012;7.862;2022-12-10T17:29:20;3.10;99.90
12303;DHT22;6214;48.012;7.862;2022-12-10T17:31:49;3.00;99.90
12303;DHT22;6214;48.012;7.862;2022-12-10T17:34:16;2.90;99.90
12303;DHT22;6214;48.012;7.862;2022-12-10T17:36:44;3.00;99.90
12303;DHT22;6214;48.012;7.862;2022-12-10T17:39:15;3.10;99.90
12303;DHT22;6214;48.012;7.862;2022-12-10T17:41:49;3.10;99.90
12303;DHT22;6214;48.012;7.862;2022-12-10T17:44:16;3.00;99.90
12303;DHT22;6214;48.012;7.862;2022-12-10T17:46:43;3.00;99.90
12303;DHT22;6214;48.012;7.862;2022-12-10T17:49:15;3.00;99.90
12303;DHT22;6214;48.012;7.862;2022-12-10T17:51:42;2.90;99.90
12303;DHT22;6214;48.012;7.862;2022-12-10T17:54:09;2.90;99.90
12303;DHT22;6214;48.012;7.862;2022-12-10T17:56:36;3.00;99.90
12303;DHT22;6214;48.012;7.862;2022-12-10T17:59:03;3.00;99.90
12303;DHT22;6214;48.012;7.862;2022-12-10T18:01:31;3.10;99.90
12303;DHT22;6214;48.012;7.862;2022-12-10T18:03:58;3.10;99.90
12303;DHT22;6214;48.012;7.862;2022-12-10T18:06:28;3.10;99.90
12303;DHT22;6214;48.012;7.862;2022-12-10T18:08:57;3.10;99.90
12303;DHT22;6214;48.012;7.862;2022-12-10T18:11:33;3.10;99.90
12303;DHT22;6214;48.012;7.862;2022-12-10T18:14:03;3.10;99.90
12303;DHT22;6214;48.012;7.862;2022-12-10T18:16:33;2.90;99.90
12303;DHT22;6214;48.012;7.862;2022-12-10T18:19:03;2.90;99.90
12303;DHT22;6214;48.012;7.862;2022-12-10T18:21:33;2.80;99.90
12303;DHT22;6214;48.012;7.862;2022-12-10T18:24:00;2.90;99.90
12303;DHT22;6214;48.012;7.862;2022-12-10T18:26:27;3.00;99.90
12303;DHT22;6214;48.012;7.862;2022-12-10T18:28:57;3.20;99.90
12303;DHT22;6214;48.012;7.862;2022-12-10T18:31:27;3.20;99.90